Aeroporto :
LOGIN :

Iscrizione | Disclaimer

   EN    FR    IT 

 










Sommario :    VFR   VFR Marginale   IFR   IFR Intensivo   IFR Molto Intensivo
Visibilità : 
Base nubi : 
>= 8 km
>= 3000ft
5 / 8 km
1000 / 3000 ft
1500m / 5 km
500 / 1000 ft
800 / 1500m
200 / 500 ft
< 800m
< 200 ft
Simboli :   Temporali  Nebbia  Neve Forte  Precipitazioni Forti  Vento > 20 kt
SIGMETs :   Varie  Temporali  Ghiacco  Turbolenza  Onda orograficha  Ceneri Vulcaniche







- Altitudine del aeroporto : 17 ft
- Codice IATA : MPL
- Carte del aeroporto


LFMT - Montpellier Méditerranée

ULTIMO METAR :
  • 181630Z AUTO 13010KT 9999 FEW029 SCT035 OVC046 12/09 Q1023 NOSIG

METARs OBSOLETI :
  • 181600Z AUTO 13010KT 9999 FEW026 OVC046 13/09 Q1023 NOSIG
  • 181530Z AUTO 13010KT 9999 OVC047 13/09 Q1023 NOSIG
  • 181500Z AUTO 13009KT 9999 FEW038 SCT047 13/09 Q1023 NOSIG
  • 181430Z AUTO 13012KT 9999 FEW038 BKN046 13/09 Q1023 NOSIG
  • 181400Z AUTO 13011KT 9999 BKN046 13/08 Q1023 NOSIG

TAF TAF LFMT
Valido dal 18 a 15 ore il 19 a 15 ore UTC


181400Z 1815/1915 14012KT 9999 BKN045
TEMPO 1816/1908 BKN020
BECMG 1823/1901 VRB05KT
ATIS : +33 4 67 13 11 70
Nessun NOTAM noto per questo aeroporto.



MetMap, La meteo Aeronautica in un colpo d'occhio ! - Copyright ORBIFLY Dicembre 2007 - Disclaimer

ORBIFLY MET'MAP TEAM :

Programmazione e sviluppo : Alexandra Zaïnal
Concezione e sviluppo : Baudouin d'Aumeries
Co-Programmazione e sviluppo : Marc-Olivier Méhu
Supporto tecnico e logistico : Manuel Goepfert
Aiuto per la traduzione : Arnaldo La Scala

Contatto : metmap@orbifly.com




FONTI E CREDITI :

   NOAA